This is the latest recevied weather packets stored in our database for station/object K1BWE-1. If no packets are shown the sender has not sent any weather packets the latest 10 day(s).
| Time | Temp. | Humidity | Pressure | Rain* | Wind** | Luminosity | Snow |
|---|---|---|---|---|---|---|---|
| 1777693831 | 20.56° C | 29% | 1014 hPa | 0 mm | - | 0 W/m² | - |
| 1777693528 | 20.56° C | 29% | 1013.9 hPa | 0 mm | - | 0 W/m² | - |
| 1777693227 | 20.56° C | 29% | 1013.9 hPa | 0 mm | - | 0 W/m² | - |
| 1777692925 | 21.11° C | 28% | 1013.8 hPa | 0 mm | - | 0 W/m² | - |
| 1777692622 | 21.11° C | 28% | 1013.7 hPa | 0 mm | - | 0 W/m² | - |
| 1777692317 | 21.11° C | 29% | 1013.7 hPa | 0 mm | - | 0 W/m² | - |
| 1777692015 | 21.11° C | 28% | 1013.7 hPa | 0 mm | - | 0 W/m² | - |
| 1777691712 | 21.67° C | 28% | 1013.7 hPa | 0 mm | - | 0 W/m² | - |
| 1777691410 | 21.67° C | 28% | 1013.7 hPa | 0 mm | - | 0 W/m² | - |
| 1777691109 | 21.67° C | 28% | 1013.4 hPa | 0 mm | - | 0 W/m² | - |
| 1777690806 | 21.67° C | 28% | 1013.2 hPa | 0 mm | - | 0 W/m² | - |
| 1777690503 | 22.22° C | 27% | 1013.3 hPa | 0 mm | - | 0 W/m² | - |
| 1777690201 | 22.22° C | 26% | 1013.1 hPa | 0 mm | - | 0 W/m² | - |
| 1777689898 | 22.22° C | 26% | 1013.3 hPa | 0 mm | - | 0 W/m² | - |
| 1777689597 | 22.78° C | 26% | 1012.9 hPa | 0 mm | - | 0 W/m² | - |
| 1777689294 | 22.78° C | 26% | 1013.1 hPa | 0 mm | - | 0 W/m² | - |
| 1777688991 | 23.33° C | 26% | 1012.8 hPa | 0 mm | - | 0 W/m² | - |
| 1777688687 | 23.89° C | 25% | 1012.8 hPa | 0 mm | - | 0 W/m² | - |
| 1777687779 | 24.44° C | 23% | 1012.6 hPa | 0 mm | - | 0 W/m² | - |
| 1777674143 | 28.89° C | 21% | 1012.5 hPa | 0 mm | - | 518 W/m² | - |
| 1777673840 | 28.33° C | 21% | 1012.4 hPa | 0 mm | - | 521 W/m² | - |
| 1777673537 | 27.78° C | 24% | 1012.8 hPa | 0 mm | - | 526 W/m² | - |
| 1777673235 | 27.78° C | 21% | 1012.9 hPa | 0 mm | - | 558 W/m² | - |
| 1777672932 | 28.33° C | 21% | 1012.8 hPa | 0 mm | - | 565 W/m² | - |
| 1777672629 | 27.78° C | 24% | 1012.7 hPa | 0 mm | - | 573 W/m² | - |
* Rain latest hour (hover to see other rain measurements)
** Current wind speed in m/s (hover to see current wind gust speed)